TOURFACTS.DK  
Stats and Facts from Tour de France.

Tour de France 2017 starts in 5 days
  Riders   Stages   Teams   Summits   Yearly  


 
Search by year

 After:  2016 - Stage 21:
  14626 starters.
  5086 different riders.
  634 teams.
  2211 stages.
  454 restdays.
  436049.60 km.
  5622 abandonnees.


Top 3
Christopher Froome89:04:48
Romain Bardet89:08:53
Nairo Quintana89:09:09
Rafal Majka209 pt.
Thomas De Gendt130 pt.
Jarlinson Pantano ..121 pt.
Peter Sagan470 pt.
Marcel Kittel228 pt.
Michael Matthews199 pt.
Adam Yates89:09:30
Louis Meintjes89:11:46
Emanuel Buchmann89:52:28
Facts from Tour de France 1938
  |   Stages.  |   Stage winners.  |   Days in yellow  |   Average speed.  |   Route.  |   Teams.  |   All riders.  |   Rookies.  |   Withdrawls.  |  

  |   GC.  |   Polka  |   Green  |   White  |   Summits. (In tour)  |   Summits. (Points)  |   Miscellaneous.  |  

Stage 10c on 15 - 07 - 1938
         Owning:    Félicien Vervaecke    
Pick a stage:  1 2 3 4a 4b 4c 5 6a 6b 7 8 9 10a 10b 10c 11 12 13 14 15 16 17a 17b 18 19 20a 20b 20c 21
  BéziersMontpellier | Dist: 73.00 km.

Average speed for all riders in stage:  33,956 km./hr.
    Place:Name:Team:Time:Km/h:
FRAAntonin MagneFRAFrance02:06:23  +  00:00:00=34,656 
BELConstant LauwersBELBelgium02:06:23  +  00:00:00=34,656 
LUXArsène MerschLUXLuxembourg02:06:23  +  00:00:00=34,656 
4 FRAYvan MarieFRACadets02:06:23  +  00:00:00=34,656 
5 FRAMathias ClemensLUXLuxembourg02:06:23  +  00:00:00=34,656 
6 FRAPierre ClemensLUXLuxembourg02:06:23  +  00:00:00=34,656 
7 FRAFabien GalateauFRACadets02:06:23  +  00:00:00=34,656 
8 FRARobert TanneveauFRACadets02:06:23  +  00:00:00=34,656 
9 NLDAntoon Van SchendelNLDHolland02:06:23  +  00:00:00=34,656 
10 FRAJean FontenayFRACadets02:07:32  +  00:01:09=34,344 
11 FRAPierre GallienFRAFrance02:07:32  +  00:01:09=34,344 
12 FRAAndré LeducqFRACadets02:07:32  +  00:01:09=34,344 
13 ITAGlauco ServadeiITAItaly02:07:52  +  00:01:29=34,254 
14 FRAVictor CossonFRAFrance02:07:59  +  00:01:36=34,223 
15 FRAPierre JaminetFRAFrance02:07:59  +  00:01:36=34,223 
16 ITAVasco BergamaschiITAItaly02:07:59  +  00:01:36=34,223 
17 BELAlbertin DisseauxBELBelgium02:07:59  +  00:01:36=34,223 
18 FRARaymond PassatFRACadets02:07:59  +  00:01:36=34,223 
19 ESPMariano CañardoESPSpain02:07:59  +  00:01:36=34,223 
20 FRAGeorges NaisseFRAFrance02:07:59  +  00:01:36=34,223 
21 FRACamille LeroyFRABluets02:07:59  +  00:01:36=34,223 
22 ESPRafael RamosESPSpain02:07:59  +  00:01:36=34,223 
23 ESPJacques AlzineESPSpain02:07:59  +  00:01:36=34,223 
24 CHEEdgar HehlenCHESwitzerland02:07:59  +  00:01:36=34,223 
25 CHEPaul EgliCHESwitzerland02:07:59  +  00:01:36=34,223 
26 NLDTheo MiddelkampNLDHolland02:07:59  +  00:01:36=34,223 
27 LUXJean MajerusLUXLuxembourg02:07:59  +  00:01:36=34,223 
28 LUXFrançois NeuensLUXLuxembourg02:07:59  +  00:01:36=34,223 
29 FRAGaston GrimbertFRABluets02:07:59  +  00:01:36=34,223 
30 CHERaymond LouviotFRACadets02:07:59  +  00:01:36=34,223 
31 FRARobert OubronFRACadets02:07:59  +  00:01:36=34,223 
32 FRAMarcel LaurentFRAFrance02:07:59  +  00:01:36=34,223 
33 FRAAuguste MalletFRAFrance02:07:59  +  00:01:36=34,223 
34 ITAEnrico MolloITAItaly02:07:59  +  00:01:36=34,223 
35 ITAGino BartaliITAItaly02:07:59  +  00:01:36=34,223 
36 BELRene WalschotBELBelgium02:07:59  +  00:01:36=34,223 
37 BELFrançois NeuvilleBELBelgium02:07:59  +  00:01:36=34,223 
38 BELEdward VissersBELBelgium02:07:59  +  00:01:36=34,223 
39 BELJules LowieBELBelgium02:07:59  +  00:01:36=34,223 
40 BELEmile Masson jr.BELBelgium02:07:59  +  00:01:36=34,223 
41 BELÉloi MeulenbergBELBelgium02:07:59  +  00:01:36=34,223 
42 BELFélicien VervaeckeBELBelgium02:07:59  +  00:01:36=34,223 
43 BELMarcel KintBELBelgium02:07:59  +  00:01:36=34,223 
44 BELSylvère MaesBELBelgium02:07:59  +  00:01:36=34,223 
45 ITAGiordano CotturITAItaly02:07:59  +  00:01:36=34,223 
46 DEUOtto WeckerlingDEUGermany02:07:59  +  00:01:36=34,223 
47 FRAJean FréchautFRAFrance02:07:59  +  00:01:36=34,223 
48 ITAGiuseppe MartanoITAItaly02:07:59  +  00:01:36=34,223 
49 FRARaoul LesueurFRACadets02:08:39  +  00:02:16=34,046 
50 CHEAlbert KnuttiCHESwitzerland02:08:39  +  00:02:16=34,046 
51 ITADante GianelloFRABluets02:08:57  +  00:02:34=33,967 
52 FRAJean-Marie GoasmatFRAFrance02:09:13  +  00:02:50=33,897 
53 DEUKarl HeideDEUGermany02:10:25  +  00:04:02=33,585 
54 ITAAldo BiniITAItaly02:10:25  +  00:04:02=33,585 
55 ITAMario ViciniITAItaly02:10:25  +  00:04:02=33,585 
56 FRAAlbert BourlonFRABluets02:10:34  +  00:04:11=33,546 
57 FRALucien Le GuevelFRABluets02:10:34  +  00:04:11=33,546 
58 ITASettimo SimoniniITAItaly02:10:42  +  00:04:19=33,512 
59 ITAOreste BernardoniFRABluets02:10:42  +  00:04:19=33,512 
60 DEUReinhold WendelDEUGermany02:10:42  +  00:04:19=33,512 
61 FRAJoseph GoutorbeFRABluets02:10:55  +  00:04:32=33,456 
62 CHEBruno CariniFRACadets02:10:55  +  00:04:32=33,456 
63 NLDJanus HellemonsNLDHolland02:11:03  +  00:04:40=33,422 
64 ESPJulián BerrenderoESPSpain02:11:05  +  00:04:42=33,414 
65 FRAJules RossiITAItaly02:12:40  +  00:06:17=33,015 
66 ITALuigi IntrozziITAItaly02:12:40  +  00:06:17=33,015 
67 ITANello TroggiITAItaly02:13:17  +  00:06:54=32,862 
68 DEUHerbert HauswaldDEUGermany02:13:17  +  00:06:54=32,862 
69 DEUJosef ArentsDEUGermany02:13:17  +  00:06:54=32,862 
70 LUXChristophe DidierLUXLuxembourg02:13:17  +  00:06:54=32,862 
71 ITAPierre SpaperiFRABluets02:16:14  +  00:09:51=32,151 
72 CHETheo PerretCHESwitzerland02:21:24  +  00:15:01=30,976 


Todays birthdays.

1899  Ardito Bresciani
1908  Renato Scorticati
1927  Marcel Huber
1941  Roger Cooreman
1942  Luis Santamarina
1952  Ferdi Van den Haute
1956  Graziano Salvietti
1961  Massimo Ghirotto
1963  Thierry Marie
1968  Dominik Krieger
1979  Sébastien Joly
1981  Yohann Gène
1982  William Bonnet
1986  Marcel Wyss
1987  Rafael Valls Ferri
1988  Egor Silin